Time;durP1;ratioP1;P1;durP2;ratioP2;P2;SDS_P1;SDS_P2;PMS_P1;PMS_P2;Temp;Humidity;BMP_temperature;BMP_pressure;BME280_temperature;BME280_humidity;BME280_pressure;Samples;Min_cycle;Max_cycle;Signal;HPM_P1;HPM_P2
2021/06/27 00:00:42;;;;;;;71.80;67.38;;;20.80;99.90;;;;;;5056388;28;20201;-78
2021/06/27 00:03:10;;;;;;;18.42;15.82;;;20.70;99.90;;;;;;5054665;28;20267;-76
2021/06/27 00:05:38;;;;;;;18.65;15.73;;;20.70;99.90;;;;;;5059000;28;20201;-77
2021/06/27 00:08:06;;;;;;;18.13;14.75;;;20.70;99.90;;;;;;5054689;28;20677;-77
2021/06/27 00:10:36;;;;;;;19.52;14.38;;;20.60;99.90;;;;;;5063540;28;20220;-78
2021/06/27 00:13:03;;;;;;;16.60;14.90;;;20.60;99.90;;;;;;5049303;28;20230;-78
2021/06/27 00:15:33;;;;;;;16.08;14.25;;;20.60;99.90;;;;;;5054759;28;20198;-78
2021/06/27 00:18:04;;;;;;;92.00;86.78;;;20.50;99.90;;;;;;5054719;28;20275;-78
2021/06/27 00:20:35;;;;;;;132.75;125.45;;;20.50;99.90;;;;;;5049838;28;21205;-78
2021/06/27 00:23:02;;;;;;;91.38;86.32;;;20.40;99.90;;;;;;5049460;28;20233;-78
2021/06/27 00:28:14;;;;;;;187.52;177.38;;;20.40;99.90;;;;;;5049115;28;20249;-77
2021/06/27 00:30:43;;;;;;;58.03;54.55;;;20.40;99.90;;;;;;5049646;28;20655;-77
2021/06/27 00:33:12;;;;;;;368.08;344.08;;;20.40;99.90;;;;;;5049382;28;20280;-77
2021/06/27 00:35:42;;;;;;;129.00;121.63;;;20.40;99.90;;;;;;5049343;28;20202;-77
2021/06/27 00:38:09;;;;;;;361.38;337.83;;;20.40;99.90;;;;;;5056100;28;20256;-77
2021/06/27 00:40:37;;;;;;;118.95;112.32;;;20.40;99.90;;;;;;5057529;28;20198;-78
2021/06/27 00:43:05;;;;;;;319.38;300.17;;;20.40;99.90;;;;;;5048807;28;20206;-77
2021/06/27 00:45:32;;;;;;;44.55;41.33;;;20.40;99.90;;;;;;5048342;28;20204;-77
2021/06/27 00:48:01;;;;;;;332.58;308.40;;;20.30;99.90;;;;;;5047619;28;20564;-76
2021/06/27 00:50:32;;;;;;;389.42;361.67;;;20.20;99.90;;;;;;5052368;28;20650;-78
2021/06/27 00:53:00;;;;;;;767.70;695.25;;;20.30;99.90;;;;;;5048577;28;20202;-78
2021/06/27 00:55:28;;;;;;;691.50;633.60;;;20.30;99.90;;;;;;5054170;28;20197;-78
2021/06/27 00:57:56;;;;;;;810.00;732.78;;;20.30;99.90;;;;;;5048471;28;20214;-78
2021/06/27 01:00:29;;;;;;;832.03;754.42;;;20.30;99.90;;;;;;5048989;28;20194;-78
2021/06/27 01:02:57;;;;;;;817.72;740.53;;;20.20;99.90;;;;;;5047774;28;20229;-78
2021/06/27 01:05:25;;;;;;;468.13;434.70;;;20.20;99.90;;;;;;5051519;28;20217;-78
2021/06/27 01:07:54;;;;;;;249.20;231.23;;;20.20;99.90;;;;;;5051277;28;20248;-78
2021/06/27 01:10:21;;;;;;;800.75;726.90;;;20.10;99.90;;;;;;5048545;28;20224;-78
2021/06/27 01:12:48;;;;;;;265.20;250.15;;;20.20;99.90;;;;;;5053345;28;20213;-77
2021/06/27 01:15:16;;;;;;;66.72;59.88;;;20.20;99.90;;;;;;5050889;28;20224;-77
2021/06/27 01:17:46;;;;;;;87.57;80.70;;;20.20;99.90;;;;;;5047666;28;20233;-77
2021/06/27 01:20:16;;;;;;;567.75;526.92;;;20.10;99.90;;;;;;5048298;28;20205;-77
2021/06/27 01:22:45;;;;;;;530.10;491.58;;;20.00;99.90;;;;;;5053195;28;20197;-77
2021/06/27 01:25:14;;;;;;;479.00;446.05;;;20.00;99.90;;;;;;5047631;28;20296;-77
2021/06/27 01:27:41;;;;;;;212.07;199.10;;;20.00;99.90;;;;;;5048247;28;20225;-77
2021/06/27 01:30:11;;;;;;;33.17;25.35;;;20.00;99.90;;;;;;5054434;28;20198;-78
2021/06/27 01:32:40;;;;;;;40.65;37.90;;;20.00;99.90;;;;;;5053088;28;20217;-77
2021/06/27 01:35:11;;;;;;;30.33;28.00;;;20.00;99.90;;;;;;5048000;28;20210;-78
2021/06/27 01:37:40;;;;;;;27.00;24.80;;;20.00;99.90;;;;;;5048311;28;20259;-77
2021/06/27 01:40:12;;;;;;;22.90;20.70;;;19.90;99.90;;;;;;5048602;28;20205;-78
2021/06/27 01:45:26;;;;;;;19.60;17.75;;;19.90;99.90;;;;;;5048163;28;20208;-77
2021/06/27 01:48:01;;;;;;;20.10;18.10;;;19.80;99.90;;;;;;5051975;28;20244;-77
2021/06/27 01:50:29;;;;;;;21.85;19.83;;;19.70;99.90;;;;;;5053896;28;20202;-78
2021/06/27 01:52:58;;;;;;;18.15;16.33;;;19.70;99.90;;;;;;5052597;28;20228;-77
2021/06/27 01:55:27;;;;;;;18.85;16.40;;;19.80;99.90;;;;;;5051106;28;20202;-77
2021/06/27 01:57:55;;;;;;;14.85;12.45;;;19.70;99.90;;;;;;5047333;28;20244;-77
2021/06/27 02:00:24;;;;;;;15.82;13.05;;;19.70;99.90;;;;;;5056946;28;20200;-78
2021/06/27 02:02:51;;;;;;;23.80;21.80;;;19.70;99.90;;;;;;5054478;28;20230;-78
2021/06/27 02:05:19;;;;;;;22.55;20.35;;;19.70;99.90;;;;;;5047905;28;20229;-78
2021/06/27 02:07:46;;;;;;;16.58;14.73;;;19.70;99.90;;;;;;5053934;28;20222;-78
2021/06/27 02:10:16;;;;;;;19.02;16.65;;;19.70;99.90;;;;;;5054196;28;20228;-78
2021/06/27 02:12:45;;;;;;;16.20;14.57;;;19.80;99.90;;;;;;5051150;28;20221;-78
2021/06/27 02:15:17;;;;;;;17.35;14.20;;;19.80;99.90;;;;;;5048147;28;20202;-78
2021/06/27 02:20:38;;;;;;;16.92;15.27;;;19.70;99.90;;;;;;5047556;28;20233;-78
2021/06/27 02:23:05;;;;;;;15.73;13.55;;;19.60;99.90;;;;;;5047369;28;20209;-78
2021/06/27 02:25:32;;;;;;;14.45;12.57;;;19.70;99.90;;;;;;5045819;28;20197;-78
2021/06/27 02:28:01;;;;;;;37.60;34.85;;;19.60;99.90;;;;;;5056508;28;20251;-78
2021/06/27 02:30:28;;;;;;;21.08;19.13;;;19.60;99.90;;;;;;5058211;28;20224;-78
2021/06/27 02:32:56;;;;;;;16.75;15.15;;;19.60;99.90;;;;;;5047037;28;20217;-78
2021/06/27 02:35:23;;;;;;;28.42;25.75;;;19.60;99.90;;;;;;5047890;28;20233;-78
2021/06/27 02:37:51;;;;;;;55.42;51.58;;;19.60;99.90;;;;;;5048329;28;20206;-78
2021/06/27 02:40:18;;;;;;;17.48;12.73;;;19.60;99.90;;;;;;5054128;28;20202;-78
2021/06/27 02:42:45;;;;;;;21.50;19.40;;;19.70;99.90;;;;;;5047354;28;20240;-78
2021/06/27 02:45:14;;;;;;;16.70;12.20;;;19.70;99.90;;;;;;5052770;28;20573;-78
2021/06/27 02:50:23;;;;;;;16.67;13.40;;;19.60;99.90;;;;;;5051564;28;20224;-78
2021/06/27 02:52:50;;;;;;;14.93;12.40;;;19.50;99.90;;;;;;5063206;28;20232;-78
2021/06/27 02:55:17;;;;;;;486.77;452.60;;;19.50;99.90;;;;;;5055328;28;20198;-79
2021/06/27 02:57:44;;;;;;;349.38;327.73;;;19.60;99.90;;;;;;5054330;28;20271;-79
2021/06/27 03:00:15;;;;;;;100.88;95.03;;;19.50;99.90;;;;;;5054611;28;20237;-78
2021/06/27 03:02:44;;;;;;;784.08;707.80;;;19.50;99.90;;;;;;5054983;28;20230;-78
2021/06/27 03:05:13;;;;;;;795.17;718.38;;;19.40;99.90;;;;;;5060278;28;20205;-78
2021/06/27 03:07:40;;;;;;;779.80;703.35;;;19.40;99.90;;;;;;5052935;28;20233;-78
2021/06/27 03:10:11;;;;;;;791.75;714.97;;;19.40;99.90;;;;;;5051497;28;20206;-78
2021/06/27 03:12:39;;;;;;;618.63;562.25;;;19.30;99.90;;;;;;5051022;28;20256;-78
2021/06/27 03:15:11;;;;;;;89.40;81.78;;;19.30;99.90;;;;;;5050455;28;20542;-78
2021/06/27 03:17:40;;;;;;;88.63;83.55;;;19.30;99.90;;;;;;5051021;28;20202;-78
2021/06/27 03:20:10;;;;;;;137.75;130.40;;;19.30;99.90;;;;;;5051061;28;20198;-79
2021/06/27 03:22:40;;;;;;;72.38;68.13;;;19.20;99.90;;;;;;5051008;28;20202;-78
2021/06/27 03:25:09;;;;;;;129.73;122.47;;;19.20;99.90;;;;;;5061654;28;20209;-78
2021/06/27 03:27:36;;;;;;;145.13;137.38;;;19.10;99.90;;;;;;5051033;28;20253;-78
2021/06/27 03:32:48;;;;;;;130.07;123.32;;;19.20;99.90;;;;;;5051640;28;20229;-78
2021/06/27 03:35:15;;;;;;;345.17;323.35;;;19.20;99.90;;;;;;5051655;28;20198;-78
2021/06/27 03:37:49;;;;;;;41.80;38.67;;;19.10;99.90;;;;;;5056418;28;20230;-78
2021/06/27 03:40:18;;;;;;;49.38;46.20;;;19.10;99.90;;;;;;5055969;28;20205;-78
2021/06/27 03:42:45;;;;;;;46.17;42.88;;;19.10;99.90;;;;;;5057148;28;20268;-78
2021/06/27 03:45:13;;;;;;;86.07;81.47;;;19.10;99.90;;;;;;5062874;28;20197;-78
2021/06/27 03:47:40;;;;;;;51.10;48.00;;;19.20;99.90;;;;;;5057090;28;20224;-78
2021/06/27 03:50:10;;;;;;;98.90;93.30;;;19.20;99.90;;;;;;5056440;28;20206;-78
2021/06/27 03:58:00;;;;;;;63.65;60.00;;;19.30;99.90;;;;;;5054775;28;20233;-78
2021/06/27 04:00:27;;;;;;;15.02;13.43;;;19.40;99.90;;;;;;5050283;28;20233;-78
2021/06/27 04:02:54;;;;;;;27.88;25.48;;;19.40;99.90;;;;;;5064082;28;20232;-78
2021/06/27 04:05:30;;;;;;;20.55;18.73;;;19.40;99.90;;;;;;5049677;28;20590;-78
2021/06/27 04:07:57;;;;;;;18.42;16.73;;;19.30;99.90;;;;;;5047410;28;20263;-76
2021/06/27 04:10:24;;;;;;;29.80;27.27;;;19.40;99.90;;;;;;5049530;28;20218;-79
2021/06/27 04:12:51;;;;;;;18.48;16.77;;;19.50;99.90;;;;;;5051933;28;20202;-79
2021/06/27 04:15:18;;;;;;;41.08;38.33;;;19.60;99.90;;;;;;5050739;28;20217;-79
2021/06/27 04:17:52;;;;;;;29.02;26.90;;;19.80;99.90;;;;;;5054950;28;20209;-79
2021/06/27 04:20:19;;;;;;;18.75;17.23;;;19.90;99.90;;;;;;5051833;28;20596;-79
2021/06/27 04:22:50;;;;;;;22.27;20.52;;;19.90;99.90;;;;;;5049324;28;20210;-78
2021/06/27 04:25:19;;;;;;;215.23;194.18;;;20.00;99.90;;;;;;5048989;28;20197;-77
2021/06/27 04:27:46;;;;;;;30.27;18.77;;;20.10;99.90;;;;;;5061074;28;20229;-78
2021/06/27 04:32:54;;;;;;;11.73;10.13;;;20.00;99.90;;;;;;5055025;28;20216;-78
2021/06/27 04:35:21;;;;;;;12.65;10.20;;;20.00;99.90;;;;;;5056023;28;20202;-78
2021/06/27 04:37:50;;;;;;;18.92;16.65;;;20.00;99.90;;;;;;5047597;28;20214;-77
2021/06/27 04:40:17;;;;;;;12.77;10.32;;;20.00;99.90;;;;;;5047561;28;20461;-77
2021/06/27 04:42:44;;;;;;;14.10;11.25;;;20.10;99.90;;;;;;5053885;28;20233;-78
2021/06/27 04:45:14;;;;;;;13.60;11.13;;;20.00;99.90;;;;;;5054525;28;20202;-78
2021/06/27 04:47:41;;;;;;;11.30;10.20;;;20.10;99.90;;;;;;5049760;28;20206;-77
2021/06/27 04:50:09;;;;;;;20.77;18.83;;;20.20;99.90;;;;;;5053311;28;20296;-77
2021/06/27 04:52:36;;;;;;;15.23;11.35;;;20.20;99.90;;;;;;5056555;28;20205;-77
2021/06/27 04:55:08;;;;;;;12.68;11.38;;;20.30;99.90;;;;;;5048892;28;20202;-77
2021/06/27 04:57:36;;;;;;;14.38;12.95;;;20.40;99.90;;;;;;5048882;28;20238;-77
2021/06/27 05:00:06;;;;;;;12.98;11.07;;;20.50;99.90;;;;;;5048895;28;20559;-77
2021/06/27 05:02:33;;;;;;;12.40;10.20;;;20.50;99.90;;;;;;5049646;28;20194;-77
2021/06/27 05:05:01;;;;;;;12.85;10.68;;;20.60;99.90;;;;;;5053530;28;20233;-78
2021/06/27 05:07:28;;;;;;;12.30;11.00;;;20.70;99.90;;;;;;5055499;28;20278;-78
2021/06/27 05:09:56;;;;;;;13.38;11.98;;;20.70;99.90;;;;;;5049813;28;20232;-78
2021/06/27 05:12:25;;;;;;;12.93;11.10;;;20.80;99.90;;;;;;5049866;28;20194;-78
2021/06/27 05:14:52;;;;;;;13.80;10.73;;;20.80;99.90;;;;;;5059655;28;20205;-77
2021/06/27 05:17:20;;;;;;;13.13;10.60;;;20.80;99.90;;;;;;5055488;28;20181;-77
2021/06/27 05:19:47;;;;;;;11.93;9.48;;;20.80;99.90;;;;;;5070298;28;20186;-78
2021/06/27 05:22:19;;;;;;;11.32;9.82;;;20.90;99.90;;;;;;5057550;28;20190;-79
2021/06/27 05:24:46;;;;;;;13.07;9.82;;;20.90;99.90;;;;;;5050441;28;20259;-78
2021/06/27 05:27:13;;;;;;;9.85;8.63;;;20.90;99.90;;;;;;5048857;28;20297;-78
2021/06/27 05:29:42;;;;;;;11.70;9.05;;;20.90;99.90;;;;;;5048937;28;20229;-79
2021/06/27 05:32:16;;;;;;;12.38;9.98;;;20.90;99.90;;;;;;5059059;28;20301;-77
2021/06/27 05:34:43;;;;;;;12.65;10.18;;;20.90;99.90;;;;;;5054184;28;20201;-78
2021/06/27 05:37:11;;;;;;;10.40;8.77;;;20.90;99.90;;;;;;5057706;28;20202;-78
2021/06/27 05:39:38;;;;;;;10.75;9.45;;;20.90;99.90;;;;;;5052822;28;20223;-78
2021/06/27 05:42:06;;;;;;;11.52;9.05;;;20.90;99.90;;;;;;5059411;28;20205;-78
2021/06/27 05:44:33;;;;;;;11.13;9.05;;;20.90;99.90;;;;;;5046862;28;20197;-78
2021/06/27 05:47:09;;;;;;;10.40;8.63;;;20.90;99.90;;;;;;5050601;28;20201;-78
2021/06/27 05:49:38;;;;;;;13.00;9.10;;;21.00;99.90;;;;;;5046438;28;20480;-78
2021/06/27 05:52:08;;;;;;;12.10;9.68;;;21.20;99.90;;;;;;5056850;28;20490;-78
2021/06/27 05:54:35;;;;;;;12.43;9.30;;;21.20;99.90;;;;;;5051159;28;20213;-78
2021/06/27 05:57:02;;;;;;;11.40;9.50;;;21.30;99.90;;;;;;5049773;28;20225;-77
2021/06/27 05:59:32;;;;;;;14.10;8.75;;;21.40;99.90;;;;;;5051384;28;20210;-77
2021/06/27 06:02:06;;;;;;;10.70;9.20;;;21.50;99.90;;;;;;5051334;28;20206;-78
2021/06/27 06:04:39;;;;;;;10.45;8.05;;;21.60;99.90;;;;;;5060787;28;20217;-78
2021/06/27 06:07:06;;;;;;;10.70;8.02;;;21.70;99.90;;;;;;5052518;28;20623;-77
2021/06/27 06:09:33;;;;;;;10.60;8.75;;;22.00;99.90;;;;;;5048319;28;20248;-77
2021/06/27 06:12:00;;;;;;;9.95;8.68;;;22.30;99.90;;;;;;5048041;28;20198;-77
2021/06/27 06:14:27;;;;;;;11.48;8.77;;;22.50;99.90;;;;;;5046716;28;20201;-77
2021/06/27 06:16:56;;;;;;;10.63;8.82;;;22.70;99.90;;;;;;5048259;28;20206;-77
2021/06/27 06:19:24;;;;;;;12.82;8.57;;;22.80;99.90;;;;;;5047417;28;20248;-78
2021/06/27 06:21:52;;;;;;;14.10;8.63;;;23.00;99.90;;;;;;5051423;28;20232;-78
2021/06/27 06:24:20;;;;;;;11.52;7.53;;;23.20;99.90;;;;;;5052209;28;20637;-77
2021/06/27 06:26:48;;;;;;;9.65;7.88;;;23.50;99.90;;;;;;5051332;28;20206;-77
2021/06/27 06:29:21;;;;;;;9.18;8.27;;;23.80;99.90;;;;;;5056857;28;20307;-78
2021/06/27 06:31:48;;;;;;;8.82;7.97;;;24.10;99.90;;;;;;5051448;28;20260;-77
2021/06/27 06:34:15;;;;;;;9.65;7.28;;;24.30;99.90;;;;;;5051427;28;20232;-78
2021/06/27 06:36:43;;;;;;;9.70;7.75;;;24.50;99.90;;;;;;5051046;28;20220;-77
2021/06/27 06:39:12;;;;;;;8.68;7.35;;;24.80;99.90;;;;;;5055749;28;20209;-77
2021/06/27 06:41:39;;;;;;;8.50;7.60;;;25.00;99.90;;;;;;5050991;28;20638;-77
2021/06/27 06:44:06;;;;;;;9.60;8.00;;;25.20;99.90;;;;;;5052711;28;20503;-77
2021/06/27 06:46:32;;;;;;;11.02;8.10;;;25.40;99.90;;;;;;5051976;28;20493;-76
2021/06/27 06:48:59;;;;;;;9.90;8.05;;;25.70;99.90;;;;;;5054012;28;20233;-77
2021/06/27 06:51:27;;;;;;;14.43;7.57;;;25.90;99.90;;;;;;5052943;28;20630;-79
2021/06/27 06:53:55;;;;;;;8.20;7.43;;;26.10;99.90;;;;;;5053036;28;20198;-79
2021/06/27 06:56:24;;;;;;;7.65;6.95;;;26.40;99.90;;;;;;5056956;28;20205;-79
2021/06/27 06:58:51;;;;;;;9.00;7.80;;;26.60;99.90;;;;;;5056923;28;20731;-77
2021/06/27 07:01:19;;;;;;;7.40;6.70;;;26.60;99.90;;;;;;5051814;28;20202;-79
2021/06/27 07:03:46;;;;;;;7.97;7.15;;;26.60;99.90;;;;;;5053501;28;20693;-78
2021/06/27 07:06:13;;;;;;;8.77;7.03;;;26.70;99.90;;;;;;5058291;28;20194;-78
2021/06/27 07:08:40;;;;;;;11.10;7.47;;;26.70;99.90;;;;;;5056518;28;20261;-78
2021/06/27 07:11:07;;;;;;;6.63;5.63;;;26.90;99.90;;;;;;5052068;28;20205;-78
2021/06/27 07:13:36;;;;;;;7.15;6.53;;;27.10;99.90;;;;;;5051417;28;20206;-78
2021/06/27 07:16:06;;;;;;;9.00;6.85;;;27.30;99.90;;;;;;5050938;28;20265;-77
2021/06/27 07:18:33;;;;;;;7.75;6.95;;;27.20;99.90;;;;;;5051745;28;20205;-75
2021/06/27 07:21:03;;;;;;;8.27;7.30;;;27.10;99.90;;;;;;5051929;28;20202;-76
2021/06/27 07:23:31;;;;;;;7.45;6.78;;;27.10;99.90;;;;;;5038771;28;20216;-76
2021/06/27 07:26:04;;;;;;;7.97;7.18;;;27.10;99.90;;;;;;5058676;28;20380;-77
2021/06/27 07:28:31;;;;;;;7.68;6.60;;;27.00;99.90;;;;;;5049035;28;20244;-76
2021/06/27 07:31:00;;;;;;;7.93;6.60;;;26.90;99.90;;;;;;5047684;28;20205;-77
2021/06/27 07:33:27;;;;;;;7.28;6.55;;;27.00;99.90;;;;;;5054594;28;20206;-77
2021/06/27 07:35:55;;;;;;;7.72;6.20;;;26.90;99.90;;;;;;5057322;28;20587;-77
2021/06/27 07:38:22;;;;;;;8.10;6.68;;;26.90;99.90;;;;;;5048589;28;20232;-76
2021/06/27 07:40:50;;;;;;;7.55;6.85;;;27.00;99.90;;;;;;5049578;28;20206;-76
2021/06/27 07:43:17;;;;;;;6.72;6.10;;;27.10;99.90;;;;;;5061524;28;20209;-77
2021/06/27 07:45:45;;;;;;;7.45;6.63;;;27.20;99.90;;;;;;5061626;28;20205;-77
2021/06/27 07:48:23;;;;;;;8.07;7.28;;;27.40;99.90;;;;;;5064869;28;20260;-76
2021/06/27 07:50:50;;;;;;;7.10;6.50;;;27.40;99.90;;;;;;5062045;28;20232;-76
2021/06/27 07:53:17;;;;;;;9.23;7.05;;;27.30;99.90;;;;;;5062684;28;20307;-77
2021/06/27 07:55:48;;;;;;;7.75;6.95;;;27.30;99.90;;;;;;5059809;28;20292;-76
2021/06/27 07:58:15;;;;;;;8.45;6.38;;;27.30;99.90;;;;;;5062401;28;20210;-76
2021/06/27 08:00:42;;;;;;;7.55;6.85;;;27.40;99.90;;;;;;5060715;28;20202;-77
2021/06/27 08:03:09;;;;;;;7.07;6.47;;;27.30;99.90;;;;;;5059541;28;20256;-77
2021/06/27 08:05:38;;;;;;;8.27;7.38;;;27.50;99.90;;;;;;5060815;28;20223;-77
2021/06/27 08:08:06;;;;;;;7.43;6.82;;;27.50;99.90;;;;;;5058935;28;20714;-77
2021/06/27 08:10:33;;;;;;;7.50;6.80;;;27.60;99.90;;;;;;5058226;28;20234;-77
2021/06/27 08:13:00;;;;;;;7.68;6.97;;;27.60;99.90;;;;;;5059383;28;20209;-77
2021/06/27 08:15:28;;;;;;;7.85;7.07;;;27.50;99.90;;;;;;5060209;28;20197;-77
2021/06/27 08:17:55;;;;;;;8.07;6.40;;;27.50;99.90;;;;;;5060942;28;20209;-77
2021/06/27 08:20:25;;;;;;;7.78;6.97;;;27.60;99.90;;;;;;5059597;28;20205;-77
2021/06/27 08:22:55;;;;;;;7.28;6.57;;;27.70;99.90;;;;;;5061290;28;20204;-77
2021/06/27 08:25:24;;;;;;;7.60;6.80;;;27.60;99.90;;;;;;5060175;28;20201;-77
2021/06/27 08:27:51;;;;;;;8.88;7.10;;;27.50;99.90;;;;;;5056676;28;20220;-77
2021/06/27 08:30:20;;;;;;;7.63;6.78;;;27.50;99.90;;;;;;5047318;28;20241;-77
2021/06/27 08:32:48;;;;;;;7.80;6.95;;;27.60;99.90;;;;;;5047491;28;20209;-77
2021/06/27 08:35:16;;;;;;;7.35;6.65;;;27.70;99.90;;;;;;5048187;28;20229;-77
2021/06/27 08:37:44;;;;;;;9.00;6.85;;;27.70;99.90;;;;;;5050171;28;20205;-77
2021/06/27 08:40:15;;;;;;;7.70;6.63;;;27.80;99.90;;;;;;5047066;28;20202;-76
2021/06/27 08:42:42;;;;;;;7.72;6.93;;;27.90;99.90;;;;;;5047377;28;20202;-77
2021/06/27 08:45:11;;;;;;;7.90;7.00;;;27.80;99.90;;;;;;5049624;28;20739;-77
2021/06/27 08:47:39;;;;;;;7.65;6.63;;;27.80;99.90;;;;;;5058107;28;20228;-77
2021/06/27 08:50:09;;;;;;;6.70;6.07;;;27.80;99.90;;;;;;5048544;28;20226;-77
2021/06/27 08:52:36;;;;;;;7.55;6.85;;;27.80;99.90;;;;;;5056417;28;20238;-77
2021/06/27 08:55:04;;;;;;;7.18;6.57;;;28.00;99.90;;;;;;5052091;28;20197;-77
2021/06/27 08:57:33;;;;;;;6.70;6.10;;;28.20;99.90;;;;;;5048686;28;20619;-77
2021/06/27 09:00:00;;;;;;;7.03;6.43;;;28.30;99.90;;;;;;5052829;28;20231;-77
2021/06/27 09:02:27;;;;;;;6.47;5.88;;;28.50;99.90;;;;;;5053402;28;20201;-77
2021/06/27 09:04:55;;;;;;;6.57;5.97;;;28.60;99.90;;;;;;5046490;28;20210;-77
2021/06/27 09:07:27;;;;;;;7.45;6.80;;;28.70;99.90;;;;;;5052166;28;20221;-76
2021/06/27 09:09:54;;;;;;;6.55;5.85;;;28.70;99.90;;;;;;5051914;28;20233;-77
2021/06/27 09:12:22;;;;;;;6.60;6.00;;;28.70;99.90;;;;;;5046352;28;20263;-77
2021/06/27 09:14:54;;;;;;;7.57;6.18;;;28.80;99.90;;;;;;5050572;28;20206;-77
2021/06/27 09:17:24;;;;;;;6.95;5.90;;;29.00;99.90;;;;;;5046918;28;20256;-77
2021/06/27 09:20:08;;;;;;;7.45;6.75;;;28.80;99.90;;;;;;5048274;28;20273;-77
2021/06/27 09:22:36;;;;;;;7.70;6.63;;;29.00;99.90;;;;;;5047001;28;20202;-77
2021/06/27 09:25:14;;;;;;;10.00;6.15;;;29.30;99.90;;;;;;5050680;28;20623;-77
2021/06/27 09:27:44;;;;;;;7.40;6.32;;;29.50;99.90;;;;;;5048823;28;20197;-77
2021/06/27 09:30:19;;;;;;;6.40;5.80;;;29.70;99.90;;;;;;5054100;28;21240;-77
2021/06/27 09:32:54;;;;;;;6.70;6.10;;;29.80;99.90;;;;;;5047598;28;20213;-77
2021/06/27 09:35:42;;;;;;;5.82;5.03;;;30.00;99.90;;;;;;5047384;28;20201;-76
2021/06/27 09:38:20;;;;;;;6.93;5.60;;;30.10;99.90;;;;;;5047196;28;20205;-76
2021/06/27 09:40:47;;;;;;;6.88;6.15;;;30.30;99.90;;;;;;5046539;28;20205;-77
2021/06/27 09:43:14;;;;;;;6.03;5.53;;;30.30;99.90;;;;;;5046621;28;20223;-77
2021/06/27 09:45:48;;;;;;;6.80;6.00;;;30.40;99.90;;;;;;5046407;28;20273;-77
2021/06/27 09:48:18;;;;;;;5.70;5.15;;;30.30;99.90;;;;;;5056750;28;20233;-77
2021/06/27 09:50:45;;;;;;;5.97;5.38;;;30.40;99.90;;;;;;5049596;28;20222;-77
2021/06/27 09:53:35;;;;;;;6.25;5.75;;;30.50;99.90;;;;;;5045361;28;20250;-77
2021/06/27 09:56:03;;;;;;;6.18;5.57;;;30.60;99.90;;;;;;5056124;28;20243;-77
2021/06/27 09:58:30;;;;;;;6.13;5.18;;;30.50;99.90;;;;;;5046072;28;20251;-77
2021/06/27 10:01:00;;;;;;;6.70;6.10;;;30.20;99.90;;;;;;5046545;28;20206;-76
2021/06/27 10:05:24;;;;;;;6.53;5.85;;;30.30;99.90;;;;;;5095875;27;20564;-76
2021/06/27 10:13:25;;;;;;;6.65;6.05;;;30.60;99.90;;;;;;5083892;28;20196;-76
2021/06/27 10:15:52;;;;;;;7.03;5.63;;;30.90;99.90;;;;;;5089685;28;20204;-76
2021/06/27 10:18:19;;;;;;;6.47;5.55;;;30.90;99.90;;;;;;5089699;28;20196;-76
2021/06/27 10:20:51;;;;;;;6.30;5.70;;;30.70;99.90;;;;;;5087535;28;20196;-76
2021/06/27 10:31:25;;;;;;;5.70;5.20;;;29.90;99.90;;;;;;5088048;28;20208;-75
2021/06/27 10:33:53;;;;;;;7.30;5.88;;;29.60;99.90;;;;;;5083914;28;20235;-76
2021/06/27 10:36:31;;;;;;;8.20;5.53;;;29.50;99.90;;;;;;5088657;28;20205;-76
2021/06/27 10:39:01;;;;;;;6.00;5.18;;;29.40;99.90;;;;;;5088312;28;20292;-76
2021/06/27 10:41:59;;;;;;;6.65;6.15;;;29.40;99.90;;;;;;5083436;28;20197;-76
2021/06/27 10:44:27;;;;;;;6.72;6.07;;;29.50;99.90;;;;;;5082762;28;20225;-77
2021/06/27 10:46:58;;;;;;;6.00;5.50;;;29.50;99.90;;;;;;5082181;28;20230;-76
2021/06/27 10:50:04;;;;;;;6.13;5.53;;;29.50;99.90;;;;;;5086652;28;20561;-76
2021/06/27 10:52:58;;;;;;;6.07;5.57;;;29.10;99.90;;;;;;5089260;28;20259;-75
2021/06/27 10:55:27;;;;;;;10.88;5.53;;;29.30;99.90;;;;;;5082174;28;20704;-76
2021/06/27 10:58:03;;;;;;;6.43;5.82;;;29.30;99.90;;;;;;5092231;28;20660;-76
2021/06/27 11:01:05;;;;;;;5.90;5.40;;;29.30;99.90;;;;;;5082601;28;20283;-76
2021/06/27 11:03:37;;;;;;;6.47;5.90;;;29.30;99.90;;;;;;5082700;28;20293;-76
2021/06/27 11:06:09;;;;;;;6.32;5.82;;;29.30;99.90;;;;;;5086385;28;20230;-76
2021/06/27 11:08:39;;;;;;;5.97;5.47;;;29.10;99.90;;;;;;5087330;28;20197;-76
2021/06/27 11:11:10;;;;;;;5.60;5.10;;;29.00;99.90;;;;;;5088643;28;20235;-76
2021/06/27 11:13:38;;;;;;;6.43;5.68;;;29.00;99.90;;;;;;5087584;28;20215;-76
2021/06/27 11:16:12;;;;;;;6.72;6.03;;;29.00;99.90;;;;;;5073957;28;20223;-76
2021/06/27 11:18:41;;;;;;;7.93;5.63;;;28.90;99.90;;;;;;5068997;28;20232;-76
2021/06/27 11:21:36;;;;;;;9.10;6.15;;;28.90;99.90;;;;;;5076158;28;20202;-76
2021/06/27 11:27:53;;;;;;;5.57;5.07;;;28.80;99.90;;;;;;4955057;28;20232;-75
2021/06/27 11:30:26;;;;;;;6.90;6.28;;;28.70;99.90;;;;;;5013546;28;20195;-76
2021/06/27 11:32:55;;;;;;;8.13;5.93;;;28.80;99.90;;;;;;5011503;28;20238;-76
2021/06/27 11:35:42;;;;;;;10.02;5.53;;;28.90;99.90;;;;;;5014242;28;20258;-76
2021/06/27 11:38:31;;;;;;;6.70;6.00;;;28.90;99.90;;;;;;5009445;28;21056;-76
2021/06/27 11:40:58;;;;;;;6.50;5.90;;;28.90;99.90;;;;;;5007611;28;20234;-75
2021/06/27 11:43:53;;;;;;;6.45;5.70;;;29.00;99.90;;;;;;5006741;28;20251;-76
2021/06/27 11:46:37;;;;;;;5.88;5.20;;;29.10;99.90;;;;;;5007175;28;20238;-76
2021/06/27 11:49:07;;;;;;;5.47;5.05;;;29.00;99.90;;;;;;5006427;28;20254;-76
2021/06/27 11:51:46;;;;;;;6.60;6.00;;;29.00;99.90;;;;;;5009743;28;20222;-76
2021/06/27 11:54:14;;;;;;;5.68;5.15;;;29.00;99.90;;;;;;5011996;28;20203;-76
2021/06/27 11:59:54;;;;;;;5.50;5.00;;;28.80;99.90;;;;;;5006711;28;20302;-76
2021/06/27 12:02:26;;;;;;;5.57;4.93;;;28.80;99.90;;;;;;5051213;28;20208;-76
2021/06/27 12:04:59;;;;;;;6.55;5.47;;;28.90;99.90;;;;;;5067615;28;20237;-76
2021/06/27 12:07:31;;;;;;;7.25;5.65;;;29.00;99.90;;;;;;5074079;28;20200;-76
2021/06/27 12:10:00;;;;;;;5.68;5.18;;;28.90;99.90;;;;;;5074227;28;20224;-76
2021/06/27 12:12:43;;;;;;;7.72;5.68;;;29.00;99.90;;;;;;5068025;28;20223;-76
2021/06/27 12:15:36;;;;;;;6.00;5.50;;;28.90;99.90;;;;;;5067372;28;20235;-76
2021/06/27 12:18:05;;;;;;;4.50;4.18;;;28.90;99.90;;;;;;5067619;28;20597;-77
2021/06/27 12:20:36;;;;;;;6.50;5.55;;;29.00;99.90;;;;;;5067536;28;20194;-77
2021/06/27 12:23:06;;;;;;;6.60;6.00;;;29.10;99.90;;;;;;5072596;28;20335;-76
2021/06/27 12:25:35;;;;;;;7.20;5.43;;;29.00;99.90;;;;;;5067116;28;20194;-77
2021/06/27 12:28:04;;;;;;;7.35;5.10;;;29.10;99.90;;;;;;5066250;28;20205;-77
2021/06/27 12:30:43;;;;;;;6.25;5.65;;;29.30;99.90;;;;;;5067622;28;20201;-77
2021/06/27 12:36:12;;;;;;;5.97;5.28;;;29.10;99.90;;;;;;5073575;28;20217;-76
2021/06/27 12:38:41;;;;;;;5.88;5.22;;;29.10;99.90;;;;;;5067108;28;20207;-76
2021/06/27 12:43:54;;;;;;;5.90;5.15;;;29.10;99.90;;;;;;5080192;28;20282;-79
2021/06/27 12:49:14;;;;;;;5.88;5.38;;;29.10;99.90;;;;;;5081102;28;20229;-78
2021/06/27 12:51:44;;;;;;;5.50;5.00;;;29.10;99.90;;;;;;5070221;28;20208;-79
2021/06/27 12:54:29;;;;;;;5.63;5.13;;;29.10;99.90;;;;;;5071131;28;20265;-81
2021/06/27 12:59:51;;;;;;;5.97;5.38;;;29.20;99.90;;;;;;5065416;28;20260;-76
2021/06/27 13:02:21;;;;;;;8.88;5.28;;;29.30;99.90;;;;;;5065604;28;20923;-77
2021/06/27 13:04:56;;;;;;;6.00;5.38;;;29.30;99.90;;;;;;5066170;28;20281;-77
2021/06/27 13:07:27;;;;;;;5.75;5.13;;;29.30;99.90;;;;;;5065600;28;20219;-77
2021/06/27 13:10:11;;;;;;;5.50;5.00;;;29.30;99.90;;;;;;5070607;28;20224;-77
2021/06/27 13:12:57;;;;;;;6.30;5.25;;;29.30;99.90;;;;;;5065705;28;20205;-76
2021/06/27 13:15:25;;;;;;;5.72;5.18;;;29.20;99.90;;;;;;5078734;28;20231;-77
2021/06/27 13:17:55;;;;;;;8.25;4.97;;;29.10;99.90;;;;;;5068413;28;20209;-77
2021/06/27 13:20:24;;;;;;;6.00;5.45;;;29.10;99.90;;;;;;5065624;28;20204;-77
2021/06/27 13:23:14;;;;;;;7.18;5.45;;;29.20;99.90;;;;;;5065239;28;20201;-77
2021/06/27 13:25:52;;;;;;;5.90;5.40;;;29.20;99.90;;;;;;5070055;28;20208;-77
2021/06/27 13:28:36;;;;;;;5.78;5.28;;;29.20;99.90;;;;;;5066637;28;20219;-76
2021/06/27 13:31:05;;;;;;;183.65;168.25;;;29.00;99.90;;;;;;5069672;28;20290;-77
2021/06/27 13:33:35;;;;;;;1080.65;993.63;;;28.90;99.90;;;;;;5068904;28;20197;-77
2021/06/27 13:36:07;;;;;;;1073.40;987.33;;;28.90;99.90;;;;;;5072137;28;20209;-77
2021/06/27 13:38:38;;;;;;;1070.50;984.65;;;29.00;99.90;;;;;;5070169;28;20220;-77
2021/06/27 13:41:06;;;;;;;1077.25;990.72;;;29.00;99.90;;;;;;5070234;28;20197;-77
2021/06/27 13:43:33;;;;;;;26.52;11.75;;;29.00;99.90;;;;;;5065934;28;20637;-77
2021/06/27 13:46:02;;;;;;;1083.80;995.03;;;29.00;99.90;;;;;;5075463;28;20208;-77